Port Jefferson Station, New York
Current Conditions -  °F | °C
As of 2:56 PM on Wednesday 26 Nov 2014 (Local Time) from KISP Reporting Station
Moderate Rain Moderate Rain  
Wind Chill: 28°   Ceiling: 700
Heat Index: 38°   Visibility: 1.5mi
Dew Point: 35°   Wind: 18mph
Humidity: 89%   Direction: 20°NNE
Pressure: 29.84"   Gusts: NA
Location:  40.93°N, 73.05°W
Report Text: KISP 261956Z 02016KT 1 1/2SM RA BR OVC007 03/02 A2984 RMK AO2 PK WND 01026/1911 SFC VIS 3 SLP105 P0016 T00330017
Loading
Personal Weather Stations






























Interactive Weather Map New forecast layout! Learn more

10-Day Weather Forecast

Advertisements
Track Severe Weather on mobile